Winston Salem, NC

4:35 PM EDT on September 27, 2016 (GMT -0400)
UNCSA | | Change Station

Elev 879 ft 36.08 °N, 80.23 °W | Updated 11 minutes ago

Mostly Cloudy
Mostly Cloudy
79.4 °F
Feels Like 82 °F
N
4.0
Wind Variable Wind from SSW
Gusts 8.0 mph

Today
High -- | Low -- °F
--% Chance of Precip.
Yesterday
High -- | Low -- °F
Precip. -- in
Pressure 29.87 in
Visibility 10.0 miles
Clouds Few 2900 ft
Mostly Cloudy 4000 ft
Heat Index 82 °F
Dew Point 68 °F
Humidity 69%
Rainfall 0.02 in
Snow Depth Not available.
7:13 AM 7:09 PM
Waning Crescent, 9% visible
METAR KINT 271954Z VRB03KT 10SM FEW029 BKN040 26/18 A2990 RMK AO2 SLP113 T02610183
Pressure 29.87 in
Visibility 10.0 miles
Clouds Few 2900 ft
Mostly Cloudy 4000 ft
Heat Index 82 °F
Dew Point 68 °F
Humidity 69%
Rainfall 0.02 in
Snow Depth Not available.
7:13 AM 7:09 PM
Waning Crescent, 9% visible
METAR KINT 271954Z VRB03KT 10SM FEW029 BKN040 26/18 A2990 RMK AO2 SLP113 T02610183

10-Day Weather Forecast

Almanac

Astronomy

Sep. 27, 2016 Rise Set
Actual Time
Civil Twilight
Nautical Twilight
Astronomical Twilight
Moon
Length of Visible Light
Length of Day
Tomorrow will be .
, % of the Moon is Illuminated

Today's Extremes

State Highs State Lows

Community

WunderPhotos

Upload Photos

1,942,168 photos uploaded!

WunderBlog® & News

Nearby

Air Quality

  Air Quality AQ Index Pollutant
Not available.

Snow Depth

Station Depth Elevation

Earthquake Activity

City Distance Mag. Time & Date
Minimum magnitude displayed is 2.5.

Coastal Water Temperatures

Place Temperature

Stations

Nearby Weather Stations

Station Location Temp. Windchill Dew Point Humidity Wind Precip. Elev Updated Type
                   

Watches & Warnings

There are currently no watches in effect.